Time;durP1;ratioP1;P1;durP2;ratioP2;P2;SDS_P1;SDS_P2;PMS_P1;PMS_P2;Temp;Humidity;BMP_temperature;BMP_pressure;BME280_temperature;BME280_humidity;BME280_pressure;Samples;Min_cycle;Max_cycle;Signal;HPM_P1;HPM_P2
2022/10/27 00:00:31;;;;;;;10.07;4.30;;;;;;;7.79;100.00;96363.25;5072616;28;20043;-77
2022/10/27 00:03:17;;;;;;;15.48;5.18;;;;;;;7.85;100.00;96371.25;5069003;28;20139;-76
2022/10/27 00:05:45;;;;;;;14.40;4.72;;;;;;;7.82;100.00;96371.69;5060267;28;20448;-77
2022/10/27 00:08:19;;;;;;;8.73;4.32;;;;;;;7.83;100.00;96363.59;5068984;28;20040;-77
2022/10/27 00:10:54;;;;;;;12.63;4.32;;;;;;;7.76;100.00;96366.34;5071219;28;20107;-77
2022/10/27 00:13:20;;;;;;;9.82;4.45;;;;;;;7.73;100.00;96363.38;5066525;28;20051;-76
2022/10/27 00:15:57;;;;;;;15.98;3.92;;;;;;;7.75;100.00;96366.56;5067655;28;20041;-76
2022/10/27 00:18:23;;;;;;;11.88;4.68;;;;;;;7.71;100.00;96366.22;5064543;28;20044;-77
2022/10/27 00:20:57;;;;;;;14.90;3.90;;;;;;;7.67;100.00;96372.97;5069139;28;20050;-76
2022/10/27 00:23:22;;;;;;;;;;;;;;;7.69;100.00;96372.75;5064881;28;20603;-76
2022/10/27 00:25:53;;;;;;;8.82;4.15;;;;;;;7.64;100.00;96370.78;5067382;28;20024;-77
2022/10/27 00:28:18;;;;;;;11.23;4.47;;;;;;;7.60;100.00;96369.66;5070809;28;20048;-77
2022/10/27 00:30:44;;;;;;;17.90;4.88;;;;;;;7.55;100.00;96372.97;5069638;28;20422;-76
2022/10/27 00:33:09;;;;;;;18.48;4.68;;;;;;;7.58;100.00;96371.72;5065447;28;20044;-76
2022/10/27 00:35:35;;;;;;;10.48;4.28;;;;;;;7.53;100.00;96372.41;5062032;28;20044;-77
2022/10/27 00:38:01;;;;;;;14.90;4.93;;;;;;;7.53;100.00;96368.97;5058707;28;20033;-76
2022/10/27 00:40:26;;;;;;;11.55;4.75;;;;;;;7.46;100.00;96385.59;5067972;28;20039;-76
2022/10/27 00:42:52;;;;;;;12.18;4.65;;;;;;;7.41;100.00;96377.66;5071548;28;20040;-77
2022/10/27 00:45:18;;;;;;;18.58;3.97;;;;;;;7.43;100.00;96390.50;5062143;28;20064;-76
2022/10/27 00:47:44;;;;;;;9.05;4.80;;;;;;;7.42;100.00;96389.69;5060346;28;20041;-76
2022/10/27 00:50:18;;;;;;;11.35;4.25;;;;;;;7.41;100.00;96382.88;5071004;28;20048;-76
2022/10/27 00:52:54;;;;;;;12.35;4.57;;;;;;;7.39;100.00;96379.69;5070389;28;20040;-76
2022/10/27 00:55:33;;;;;;;15.98;5.28;;;;;;;7.34;100.00;96376.16;5070288;28;20037;-76
2022/10/27 00:58:03;;;;;;;15.38;4.65;;;;;;;7.28;100.00;96383.09;5069556;28;20452;-77
2022/10/27 01:00:30;;;;;;;18.98;4.88;;;;;;;7.29;100.00;96379.44;5068103;28;20032;-77
2022/10/27 01:02:56;;;;;;;14.30;4.78;;;;;;;7.32;100.00;96389.47;5070922;28;20041;-77
2022/10/27 01:05:24;;;;;;;15.70;4.70;;;;;;;7.31;100.00;96387.88;5069289;28;20036;-77
2022/10/27 01:07:53;;;;;;;11.30;4.43;;;;;;;7.25;100.00;96383.53;5064831;28;20051;-77
2022/10/27 01:10:19;;;;;;;12.07;4.30;;;;;;;7.19;100.00;96385.25;5062756;28;20498;-78
2022/10/27 01:12:45;;;;;;;13.63;4.70;;;;;;;7.19;100.00;96389.69;5064243;28;20241;-76
2022/10/27 01:15:12;;;;;;;14.38;4.65;;;;;;;7.11;100.00;96383.75;5065938;28;20040;-76
2022/10/27 01:18:05;;;;;;;12.60;4.30;;;;;;;7.15;100.00;96393.78;5069562;28;20114;-76
2022/10/27 01:20:58;;;;;;;8.45;3.97;;;;;;;7.07;100.00;96385.22;5069231;28;20115;-78
2022/10/27 01:23:48;;;;;;;12.25;3.78;;;;;;;7.07;100.00;96393.06;5069538;28;20518;-77
2022/10/27 01:26:13;;;;;;;13.55;4.28;;;;;;;7.02;100.00;96390.31;5057698;28;20517;-77
2022/10/27 01:29:07;;;;;;;18.80;4.53;;;;;;;7.00;100.00;96392.38;5070289;28;20037;-77
2022/10/27 01:31:42;;;;;;;10.45;3.80;;;;;;;6.97;100.00;96387.59;5069091;28;20063;-78
2022/10/27 01:34:38;;;;;;;12.40;4.10;;;;;;;6.99;100.00;96385.53;5066741;28;20166;-77
2022/10/27 01:37:20;;;;;;;12.32;4.18;;;;;;;7.00;100.00;96387.16;5059974;28;20086;-77
2022/10/27 01:39:59;;;;;;;10.30;3.65;;;;;;;6.97;100.00;96384.97;5066426;28;20044;-77
2022/10/27 01:42:32;;;;;;;9.23;4.18;;;;;;;6.83;100.00;96386.19;5070183;28;20040;-77
2022/10/27 01:45:00;;;;;;;9.45;4.05;;;;;;;6.83;100.00;96387.00;5067836;28;20104;-77
2022/10/27 01:47:26;;;;;;;15.38;4.13;;;;;;;6.84;100.00;96388.59;5057843;28;20490;-78
2022/10/27 01:49:53;;;;;;;19.85;4.35;;;;;;;6.75;100.00;96385.50;5069698;28;20053;-78
2022/10/27 01:52:44;;;;;;;16.45;4.43;;;;;;;6.74;100.00;96383.09;5066195;28;20087;-77
2022/10/27 01:55:17;;;;;;;10.63;3.88;;;;;;;6.83;100.00;96380.97;5064287;28;20033;-77
2022/10/27 01:57:49;;;;;;;9.77;3.67;;;;;;;6.74;100.00;96378.66;5068670;28;20509;-77
2022/10/27 02:00:14;;;;;;;12.27;4.05;;;;;;;6.72;100.00;96380.72;5067567;28;20045;-78
2022/10/27 02:02:57;;;;;;;8.20;3.88;;;;;;;6.67;100.00;96379.78;5066974;28;20459;-77
2022/10/27 02:05:42;;;;;;;10.13;3.80;;;;;;;6.64;100.00;96378.41;5066540;28;20047;-77
2022/10/27 02:08:13;;;;;;;12.13;4.00;;;;;;;6.64;100.00;96378.41;5068871;28;20040;-78
2022/10/27 02:10:57;;;;;;;12.95;4.22;;;;;;;6.56;100.00;96376.09;5069371;28;20085;-78
2022/10/27 02:13:23;;;;;;;10.82;3.75;;;;;;;6.58;100.00;96384.53;5060229;28;20044;-77
2022/10/27 02:15:54;;;;;;;10.35;3.97;;;;;;;6.62;100.00;96385.66;5066598;28;20054;-77
2022/10/27 02:18:25;;;;;;;10.43;3.90;;;;;;;6.61;100.00;96389.31;5064807;28;20032;-77
2022/10/27 02:20:56;;;;;;;11.73;4.35;;;;;;;6.55;100.00;96390.19;5067735;28;20106;-77
2022/10/27 02:23:22;;;;;;;8.57;3.63;;;;;;;6.50;100.00;96393.47;5069453;28;20040;-77
2022/10/27 02:26:01;;;;;;;9.82;3.50;;;;;;;6.51;100.00;96389.06;5067400;28;20049;-76
2022/10/27 02:28:36;;;;;;;14.93;4.22;;;;;;;6.51;100.00;96386.44;5058681;28;20527;-77
2022/10/27 02:31:02;;;;;;;;;;;;;;;6.47;100.00;96387.91;5062366;28;20177;-77
2022/10/27 02:33:28;;;;;;;15.80;3.22;;;;;;;6.44;100.00;96383.91;5068648;28;19924;-77
2022/10/27 02:35:54;;;;;;;15.57;3.80;;;;;;;6.38;100.00;96388.19;5066692;28;20044;-78
2022/10/27 02:38:20;;;;;;;9.52;3.88;;;;;;;6.36;100.00;96382.38;5058988;28;20037;-78
2022/10/27 02:40:46;;;;;;;9.93;4.00;;;;;;;6.32;100.00;96378.63;5067852;28;20478;-78
2022/10/27 02:43:12;;;;;;;12.65;3.83;;;;;;;6.36;100.00;96387.59;5064296;28;20553;-77
2022/10/27 02:45:37;;;;;;;8.20;3.58;;;;;;;6.32;100.00;96378.63;5059708;28;20045;-77
2022/10/27 02:48:03;;;;;;;8.15;3.90;;;;;;;6.28;100.00;96374.84;5059688;28;20483;-78
2022/10/27 02:50:29;;;;;;;16.13;5.40;;;;;;;6.29;100.00;96386.88;5065791;28;20048;-77
2022/10/27 02:52:54;;;;;;;14.35;4.65;;;;;;;6.17;100.00;96383.44;5063734;28;20046;-77
2022/10/27 02:55:20;;;;;;;20.55;4.22;;;;;;;6.19;100.00;96381.38;5062668;28;20037;-77
2022/10/27 02:57:46;;;;;;;12.80;4.95;;;;;;;6.18;100.00;96385.03;5065555;28;20036;-76
2022/10/27 03:00:12;;;;;;;12.07;4.47;;;;;;;6.09;100.00;96391.56;5066246;28;20556;-77
2022/10/27 03:02:37;;;;;;;11.30;5.30;;;;;;;6.13;100.00;96392.72;5068522;28;20067;-77
2022/10/27 03:05:03;;;;;;;9.70;4.07;;;;;;;6.14;100.00;96389.91;5067827;28;20041;-77
2022/10/27 03:07:29;;;;;;;11.23;3.92;;;;;;;6.17;100.00;96393.88;5063971;28;20140;-78
2022/10/27 03:09:54;;;;;;;14.65;3.58;;;;;;;6.13;100.00;96387.50;5061477;28;20040;-78
2022/10/27 03:12:20;;;;;;;10.38;3.90;;;;;;;6.06;100.00;96388.38;5068491;28;20490;-78
2022/10/27 03:14:45;;;;;;;15.43;4.32;;;;;;;6.09;100.00;96386.34;5066975;28;20109;-78
2022/10/27 03:17:11;;;;;;;16.05;4.25;;;;;;;6.01;100.00;96380.38;5065954;28;20071;-78
2022/10/27 03:19:36;;;;;;;15.50;3.63;;;;;;;6.01;100.00;96384.81;5056228;28;20053;-78
2022/10/27 03:22:02;;;;;;;13.25;4.43;;;;;;;5.99;100.00;96379.81;5067537;28;20445;-79
2022/10/27 03:24:27;;;;;;;16.10;3.95;;;;;;;6.01;100.00;96380.38;5062741;28;20053;-78
2022/10/27 03:26:53;;;;;;;14.13;3.63;;;;;;;5.98;100.00;96375.59;5067733;28;20414;-77
2022/10/27 03:29:18;;;;;;;13.05;3.88;;;;;;;6.01;100.00;96380.38;5056503;28;20104;-78
2022/10/27 03:31:44;;;;;;;10.70;3.67;;;;;;;5.97;100.00;96381.84;5069465;28;20573;-79
2022/10/27 03:34:09;;;;;;;13.80;4.03;;;;;;;5.90;100.00;96378.47;5067374;28;20036;-78
2022/10/27 03:36:35;;;;;;;9.60;4.15;;;;;;;5.89;100.00;96376.91;5068827;28;20044;-78
2022/10/27 03:39:01;;;;;;;10.13;3.72;;;;;;;5.86;100.00;96387.75;5067694;28;20040;-79
2022/10/27 03:41:26;;;;;;;13.57;4.35;;;;;;;5.88;100.00;96380.50;5068117;28;20037;-77
2022/10/27 03:43:52;;;;;;;18.58;3.80;;;;;;;5.84;100.00;96384.56;5068417;28;20426;-77
2022/10/27 03:46:17;;;;;;;12.25;3.88;;;;;;;5.81;100.00;96392.84;5061529;28;20072;-77
2022/10/27 03:48:43;;;;;;;8.95;3.72;;;;;;;5.77;100.00;96389.06;5068237;28;20048;-77
2022/10/27 03:51:08;;;;;;;6.97;3.40;;;;;;;5.75;100.00;96391.06;5065277;28;20153;-77
2022/10/27 03:53:34;;;;;;;13.50;4.22;;;;;;;5.71;100.00;96391.53;5068514;28;20093;-77
2022/10/27 03:55:59;;;;;;;9.73;3.60;;;;;;;5.76;100.00;96387.47;5059607;28;20454;-76
2022/10/27 03:58:25;;;;;;;14.13;3.92;;;;;;;5.72;100.00;96390.50;5068068;28;20041;-77
2022/10/27 04:00:50;;;;;;;14.57;4.32;;;;;;;5.67;100.00;96394.78;5071362;28;20120;-78
2022/10/27 04:03:16;;;;;;;8.07;3.97;;;;;;;5.61;100.00;96393.84;5075503;28;20456;-78
2022/10/27 04:05:41;;;;;;;12.57;4.18;;;;;;;5.65;100.00;96392.38;5073245;28;20476;-78
2022/10/27 04:08:07;;;;;;;12.30;4.38;;;;;;;5.64;100.00;96396.00;5074378;28;20048;-79
2022/10/27 04:10:33;;;;;;;14.48;3.97;;;;;;;5.57;100.00;96384.81;5072629;28;20056;-78
2022/10/27 04:12:58;;;;;;;12.95;3.92;;;;;;;5.63;100.00;96394.44;5072217;28;20044;-78
2022/10/27 04:15:25;;;;;;;10.35;4.18;;;;;;;5.62;100.00;96400.66;5072978;28;20490;-78
2022/10/27 04:17:52;;;;;;;11.45;4.22;;;;;;;5.60;100.00;96404.50;5071036;28;20060;-78
2022/10/27 04:20:18;;;;;;;9.40;4.13;;;;;;;5.53;100.00;96399.31;5072109;28;20248;-77
2022/10/27 04:22:43;;;;;;;11.90;4.20;;;;;;;5.51;100.00;96396.13;5068971;28;20044;-78
2022/10/27 04:25:09;;;;;;;9.55;3.90;;;;;;;5.52;100.00;96408.19;5060367;28;20036;-78
2022/10/27 04:27:35;;;;;;;14.27;4.20;;;;;;;5.52;100.00;96408.19;5072305;28;20036;-77
2022/10/27 04:30:00;;;;;;;9.88;3.78;;;;;;;5.49;100.00;96403.41;5068921;28;21032;-77
2022/10/27 04:32:25;;;;;;;18.70;3.92;;;;;;;5.50;100.00;96410.19;5070976;28;20041;-77
2022/10/27 04:34:51;;;;;;;12.02;3.65;;;;;;;5.43;100.00;96404.25;5070958;28;20051;-77
2022/10/27 04:37:16;;;;;;;13.85;4.18;;;;;;;5.42;100.00;96407.88;5074124;28;20443;-78
2022/10/27 04:39:42;;;;;;;8.77;4.43;;;;;;;5.41;100.00;96406.28;5071425;28;20044;-78
2022/10/27 04:42:09;;;;;;;21.90;6.82;;;;;;;5.42;100.00;96413.09;5072069;28;20560;-79
2022/10/27 04:44:35;;;;;;;11.95;4.90;;;;;;;5.43;100.00;96414.69;5054879;28;20044;-77
2022/10/27 04:47:00;;;;;;;10.95;4.40;;;;;;;5.36;100.00;96418.16;5069492;28;20413;-78
2022/10/27 04:49:26;;;;;;;25.83;4.78;;;;;;;5.34;100.00;96407.13;5070647;28;20033;-78
2022/10/27 04:51:51;;;;;;;13.60;3.70;;;;;;;5.35;100.00;96419.16;5071019;28;20044;-77
2022/10/27 04:54:17;;;;;;;12.45;4.28;;;;;;;5.24;100.00;96404.19;5061844;28;20453;-78
2022/10/27 04:56:42;;;;;;;12.55;3.80;;;;;;;5.26;100.00;96415.22;5065725;28;20044;-78
2022/10/27 04:59:08;;;;;;;11.57;4.10;;;;;;;5.26;100.00;96417.84;5068289;28;20111;-78
2022/10/27 05:01:33;;;;;;;12.45;5.22;;;;;;;5.23;100.00;96415.66;5061921;28;20044;-77
2022/10/27 05:03:59;;;;;;;8.40;3.67;;;;;;;5.23;100.00;96414.84;5071689;28;20072;-77
2022/10/27 05:06:24;;;;;;;11.30;4.40;;;;;;;5.28;100.00;96413.19;5060197;28;20406;-78
2022/10/27 05:08:49;;;;;;;14.73;4.72;;;;;;;5.28;100.00;96410.59;5070453;28;20037;-79
2022/10/27 05:11:15;;;;;;;15.68;4.45;;;;;;;5.26;100.00;96412.63;5071246;28;20040;-77
2022/10/27 05:13:40;;;;;;;13.65;4.35;;;;;;;5.19;100.00;96409.25;5070080;28;20513;-77
2022/10/27 05:16:06;;;;;;;16.90;4.68;;;;;;;5.20;100.00;96413.44;5061863;28;20033;-77
2022/10/27 05:18:32;;;;;;;11.82;4.32;;;;;;;5.17;100.00;96411.28;5061211;28;20041;-77
2022/10/27 05:20:58;;;;;;;10.75;4.28;;;;;;;5.09;100.00;96407.13;5065403;28;20094;-77
2022/10/27 05:23:23;;;;;;;14.25;5.03;;;;;;;5.14;100.00;96406.47;5066811;28;20040;-77
2022/10/27 05:25:52;;;;;;;11.18;5.05;;;;;;;5.11;100.00;96405.09;5061401;28;20418;-77
2022/10/27 05:28:19;;;;;;;14.48;4.10;;;;;;;5.09;100.00;96408.94;5063238;28;20067;-77
2022/10/27 05:30:44;;;;;;;13.40;4.50;;;;;;;5.10;100.00;96405.28;5065634;28;20498;-79
2022/10/27 05:33:10;;;;;;;9.73;3.80;;;;;;;5.11;100.00;96406.91;5071087;28;20047;-78
2022/10/27 05:35:35;;;;;;;13.13;4.30;;;;;;;5.12;100.00;96409.31;5067216;28;20052;-78
2022/10/27 05:38:01;;;;;;;14.85;4.10;;;;;;;5.08;100.00;96407.34;5068954;28;20470;-79
2022/10/27 05:40:33;;;;;;;12.80;4.47;;;;;;;5.05;100.00;96402.53;5069176;28;20032;-78
2022/10/27 05:43:00;;;;;;;9.23;3.83;;;;;;;5.07;100.00;96416.16;5070980;28;20214;-78
2022/10/27 05:45:26;;;;;;;9.00;4.15;;;;;;;4.96;100.00;96415.03;5070859;28;20112;-78
2022/10/27 05:48:06;;;;;;;12.02;4.18;;;;;;;4.90;100.00;96421.91;5073463;28;20490;-78
2022/10/27 05:50:33;;;;;;;11.13;4.70;;;;;;;4.90;100.00;96423.69;5072493;28;20184;-79
2022/10/27 05:52:59;;;;;;;17.20;4.65;;;;;;;4.98;100.00;96424.25;5070598;28;20504;-78
2022/10/27 05:55:25;;;;;;;9.60;4.60;;;;;;;4.98;100.00;96419.03;5070760;28;20041;-78
2022/10/27 05:57:53;;;;;;;14.02;4.43;;;;;;;4.95;100.00;96424.66;5058009;28;20410;-77
2022/10/27 06:00:18;;;;;;;13.77;4.07;;;;;;;4.90;100.00;96416.69;5054428;28;20186;-77
2022/10/27 06:02:44;;;;;;;13.50;4.75;;;;;;;4.92;100.00;96414.66;5060369;28;20052;-76
2022/10/27 06:05:09;;;;;;;18.02;4.78;;;;;;;4.91;100.00;96426.09;5065411;28;20045;-77
2022/10/27 06:07:35;;;;;;;12.57;4.50;;;;;;;4.89;100.00;96428.13;5068973;28;20041;-75
2022/10/27 06:10:00;;;;;;;15.55;4.78;;;;;;;4.94;100.00;96423.09;5059292;28;20477;-75
2022/10/27 06:12:26;;;;;;;14.70;4.70;;;;;;;4.94;100.00;96432.69;5068845;28;20036;-75
2022/10/27 06:14:51;;;;;;;13.07;5.15;;;;;;;4.94;100.00;96438.75;5067843;28;20040;-76
2022/10/27 06:17:17;;;;;;;19.55;5.15;;;;;;;4.99;100.00;96436.28;5068660;28;20072;-75
2022/10/27 06:19:42;;;;;;;11.07;4.32;;;;;;;5.07;100.00;96447.47;5068438;28;20044;-76
2022/10/27 06:22:08;;;;;;;14.02;4.55;;;;;;;5.07;100.00;96447.47;5073553;28;20044;-74
2022/10/27 06:24:33;;;;;;;23.23;5.35;;;;;;;5.12;100.00;96450.25;5067131;28;20041;-75
2022/10/27 06:26:59;;;;;;;14.13;4.47;;;;;;;5.07;100.00;96444.88;5063588;28;20051;-75
2022/10/27 06:29:24;;;;;;;19.33;5.22;;;;;;;5.14;100.00;96456.06;5066747;28;20041;-77
2022/10/27 06:31:50;;;;;;;11.48;4.88;;;;;;;5.12;100.00;96460.69;5067224;28;20461;-77
2022/10/27 06:34:15;;;;;;;13.57;5.15;;;;;;;5.16;100.00;96451.44;5064434;28;20305;-76
2022/10/27 06:36:41;;;;;;;21.58;4.85;;;;;;;5.20;100.00;96457.81;5058127;28;20119;-77
2022/10/27 06:39:06;;;;;;;14.65;4.88;;;;;;;5.23;100.00;96457.41;5065389;28;20044;-76
2022/10/27 06:41:33;;;;;;;15.93;4.75;;;;;;;5.32;100.00;96471.00;5061789;28;20148;-75
2022/10/27 06:43:58;;;;;;;13.63;5.65;;;;;;;5.34;100.00;96459.34;5061009;28;20133;-75
2022/10/27 06:46:24;;;;;;;15.88;5.15;;;;;;;5.36;100.00;96459.91;5059492;28;20044;-76
2022/10/27 06:48:49;;;;;;;14.35;5.15;;;;;;;5.45;100.00;96462.28;5067586;28;20048;-76
2022/10/27 06:51:15;;;;;;;16.30;5.35;;;;;;;5.61;100.00;96469.56;5068649;28;20037;-75
2022/10/27 06:53:40;;;;;;;15.18;5.43;;;;;;;5.63;100.00;96472.78;5067211;28;20422;-76
2022/10/27 06:56:06;;;;;;;12.18;5.68;;;;;;;5.66;100.00;96471.53;5063617;28;20035;-75
2022/10/27 06:58:34;;;;;;;16.48;5.50;;;;;;;5.75;100.00;96474.66;5069392;28;20032;-75
2022/10/27 07:00:59;;;;;;;14.23;5.32;;;;;;;5.76;100.00;96478.88;5068356;28;20142;-75
2022/10/27 07:03:25;;;;;;;19.08;4.90;;;;;;;5.85;100.00;96480.22;5068190;28;20207;-75
2022/10/27 07:05:50;;;;;;;14.80;5.60;;;;;;;5.90;100.00;96482.97;5056674;28;20037;-75
2022/10/27 07:08:16;;;;;;;15.52;5.60;;;;;;;5.95;100.00;96479.69;5067068;28;20062;-75
2022/10/27 07:10:41;;;;;;;20.33;4.97;;;;;;;6.09;100.00;96485.63;5067915;28;20044;-76
2022/10/27 07:13:07;;;;;;;14.02;4.97;;;;;;;6.16;100.00;96481.97;5066582;28;20497;-76
2022/10/27 07:15:32;;;;;;;11.45;5.10;;;;;;;6.17;100.00;96477.53;5060297;28;20060;-76
2022/10/27 07:18:05;;;;;;;24.70;5.72;;;;;;;6.50;100.00;96482.38;5067120;28;20041;-77
2022/10/27 07:20:35;;;;;;;17.77;4.95;;;;;;;6.56;100.00;96480.72;5060662;28;20089;-77
2022/10/27 07:23:01;;;;;;;24.27;7.32;;;;;;;6.55;100.00;96479.09;5061959;28;20040;-77
2022/10/27 07:25:27;;;;;;;18.02;5.60;;;;;;;7.02;100.00;96479.31;5060395;28;20037;-77
2022/10/27 07:27:54;;;;;;;15.73;6.15;;;;;;;7.05;100.00;96489.34;5057514;28;20099;-75
2022/10/27 07:30:22;;;;;;;16.15;5.93;;;;;;;7.04;100.00;96493.00;5065305;28;20036;-76
2022/10/27 07:32:48;;;;;;;18.08;6.13;;;;;;;7.02;100.00;96489.78;5056864;28;20106;-76
2022/10/27 07:35:15;;;;;;;14.20;5.60;;;;;;;7.72;100.00;96485.72;5066248;28;20112;-76
2022/10/27 07:37:44;;;;;;;17.00;5.57;;;;;;;7.89;100.00;96477.22;5063951;28;20041;-76
2022/10/27 07:40:11;;;;;;;13.13;4.85;;;;;;;8.08;100.00;96486.53;5058412;28;20048;-76
2022/10/27 07:42:46;;;;;;;9.38;4.43;;;;;;;7.94;100.00;96490.41;5064441;28;20115;-75
2022/10/27 07:45:13;;;;;;;14.68;4.57;;;;;;;7.94;100.00;96496.47;5058288;28;20040;-74
2022/10/27 07:47:43;;;;;;;13.48;5.38;;;;;;;7.98;100.00;96491.56;5066324;28;20115;-76
2022/10/27 07:50:09;;;;;;;10.65;5.13;;;;;;;8.03;100.00;96489.06;5062255;28;20049;-74
2022/10/27 07:52:45;;;;;;;14.25;5.13;;;;;;;8.14;100.00;96490.84;5066653;28;20048;-75
2022/10/27 07:55:13;;;;;;;11.45;4.70;;;;;;;8.34;100.00;96492.31;5061736;28;20045;-75
2022/10/27 07:57:40;;;;;;;11.65;4.60;;;;;;;8.67;100.00;96491.69;5056533;28;20051;-75
2022/10/27 08:00:08;;;;;;;19.30;6.30;;;;;;;9.13;100.00;96486.50;5066653;28;21694;-75
2022/10/27 08:02:33;;;;;;;15.40;4.63;;;;;;;9.47;100.00;96486.56;5067835;28;20065;-75
2022/10/27 08:04:59;;;;;;;10.68;4.82;;;;;;;9.71;100.00;96491.66;5068371;28;20052;-75
2022/10/27 08:07:25;;;;;;;26.27;12.43;;;;;;;9.68;100.00;96494.78;5066618;28;20574;-76
2022/10/27 08:09:51;;;;;;;17.60;6.30;;;;;;;9.84;100.00;96491.38;5064590;28;20044;-76
2022/10/27 08:12:16;;;;;;;15.38;6.55;;;;;;;9.84;100.00;96496.63;5071519;28;20062;-75
2022/10/27 08:14:42;;;;;;;15.10;4.85;;;;;;;9.89;100.00;96488.78;5063655;28;20072;-75
2022/10/27 08:17:07;;;;;;;13.75;4.05;;;;;;;10.30;100.00;96499.13;5063191;28;20461;-76
2022/10/27 08:19:33;;;;;;;12.25;4.75;;;;;;;10.50;100.00;96487.28;5066568;28;20513;-75
2022/10/27 08:21:58;;;;;;;10.00;4.20;;;;;;;10.77;100.00;96487.31;5070779;28;20051;-76
2022/10/27 08:24:24;;;;;;;14.00;4.22;;;;;;;10.96;100.00;96489.63;5066277;28;20595;-78
2022/10/27 08:26:49;;;;;;;11.15;3.97;;;;;;;11.08;100.00;96482.41;5065059;28;20041;-75
2022/10/27 08:29:15;;;;;;;9.70;3.70;;;;;;;11.23;100.00;96479.94;5064535;28;20455;-75
2022/10/27 08:31:40;;;;;;;10.07;3.67;;;;;;;11.38;100.00;96489.00;5069673;28;20044;-76
2022/10/27 08:34:06;;;;;;;11.35;3.78;;;;;;;11.41;100.00;96483.25;5067413;28;20487;-75
2022/10/27 08:36:37;;;;;;;13.70;3.83;;;;;;;11.32;100.00;96492.63;5071770;28;20037;-75
2022/10/27 08:39:08;;;;;;;8.82;3.17;;;;;;;11.47;100.00;96484.88;5060156;28;20528;-76
2022/10/27 08:41:45;;;;;;;9.15;3.47;;;;;;;11.78;100.00;96490.41;5057720;28;20091;-76
2022/10/27 08:44:29;;;;;;;12.77;3.40;;;;;;;11.71;100.00;96495.06;5058638;28;20068;-76
2022/10/27 08:46:59;;;;;;;8.10;3.47;;;;;;;12.29;100.00;96498.66;5057670;28;20045;-75
2022/10/27 08:49:48;;;;;;;15.82;3.80;;;;;;;12.33;100.00;96490.25;5056930;28;20055;-76
2022/10/27 08:52:28;;;;;;;9.23;3.30;;;;;;;12.59;100.00;96494.56;5064929;28;20062;-75
2022/10/27 08:55:01;;;;;;;12.95;3.38;;;;;;;12.65;100.00;96476.91;5057261;28;20384;-75
2022/10/27 08:57:30;;;;;;;13.48;3.50;;;;;;;12.76;100.00;96477.75;5059099;28;20037;-75
2022/10/27 08:59:57;;;;;;;14.02;3.03;;;;;;;13.03;100.00;96482.03;5063351;28;20040;-75
2022/10/27 09:02:32;;;;;;;9.23;3.42;;;;;;;13.20;100.00;96479.97;5067687;28;20072;-75
2022/10/27 09:05:11;;;;;;;11.68;3.22;;;;;;;13.03;100.00;96482.03;5061701;28;20041;-75
2022/10/27 09:07:56;;;;;;;8.57;3.40;;;;;;;12.89;100.00;96471.97;5065990;28;20036;-74
2022/10/27 09:10:39;;;;;;;10.57;3.38;;;;;;;12.76;100.00;96481.19;5066969;28;20087;-75
2022/10/27 09:13:41;;;;;;;12.32;3.22;;;;;;;12.93;100.00;96473.03;5068893;28;20047;-75
2022/10/27 09:16:11;;;;;;;10.68;3.60;;;;;;;12.81;100.00;96475.13;5063110;28;20052;-75
2022/10/27 09:18:43;;;;;;;14.07;3.25;;;;;;;13.22;100.00;96477.84;5062731;28;20508;-76
2022/10/27 09:21:17;;;;;;;8.75;3.38;;;;;;;13.36;100.00;96480.00;5060124;28;20083;-76
2022/10/27 09:23:48;;;;;;;9.27;3.25;;;;;;;14.01;100.00;96475.78;5063960;28;20055;-75
2022/10/27 09:26:17;;;;;;;13.10;3.28;;;;;;;14.35;100.00;96475.19;5065821;28;20098;-75
2022/10/27 09:28:48;;;;;;;14.23;3.20;;;;;;;14.61;100.00;96472.44;5061602;28;20048;-76
2022/10/27 09:31:17;;;;;;;6.75;2.90;;;;;;;14.88;100.00;96471.28;5058076;28;20502;-78
2022/10/27 09:33:52;;;;;;;7.30;3.17;;;;;;;15.20;100.00;96472.66;5063599;28;20391;-76
2022/10/27 09:36:21;;;;;;;15.05;3.13;;;;;;;15.61;100.00;96467.09;5066617;28;20051;-77
2022/10/27 09:38:47;;;;;;;7.20;2.80;;;;;;;16.17;100.00;96467.69;5063769;28;20037;-77
2022/10/27 09:41:12;;;;;;;7.75;2.78;;;;;;;16.88;100.00;96459.97;5060388;28;20041;-76
2022/10/27 09:43:38;;;;;;;8.90;3.08;;;;;;;18.02;100.00;96465.19;5069484;28;20045;-76
2022/10/27 09:46:10;;;;;;;14.20;3.55;;;;;;;18.99;100.00;96461.72;5061509;28;20037;-77
2022/10/27 09:48:35;;;;;;;8.35;2.50;;;;;;;18.94;100.00;96456.50;5065878;28;20112;-76
2022/10/27 09:51:21;;;;;;;9.20;2.97;;;;;;;19.38;100.00;96455.00;5064165;28;20095;-75
2022/10/27 09:53:51;;;;;;;6.95;2.50;;;;;;;19.48;98.37;96454.75;5068126;28;20063;-76
2022/10/27 09:56:24;;;;;;;9.10;2.90;;;;;;;19.67;95.29;96451.09;5068297;28;20043;-78
2022/10/27 09:58:57;;;;;;;11.50;2.90;;;;;;;20.14;93.47;96446.19;5078050;28;20048;-76
2022/10/27 10:01:25;;;;;;;8.48;3.15;;;;;;;20.63;85.15;96448.06;5064469;28;20040;-77
2022/10/27 10:04:00;;;;;;;14.20;2.63;;;;;;;21.08;76.57;96453.22;5055740;28;20380;-77
2022/10/27 10:06:34;;;;;;;6.80;2.63;;;;;;;20.90;81.00;96453.19;5058800;28;20048;-73
2022/10/27 10:09:22;;;;;;;11.52;3.08;;;;;;;21.80;81.28;96445.63;5066448;28;20066;-76
2022/10/27 10:11:49;;;;;;;11.38;2.83;;;;;;;22.01;71.87;96451.09;5061980;28;20418;-73
2022/10/27 10:14:22;;;;;;;8.98;2.70;;;;;;;;;;5065266;28;20049;-74
2022/10/27 10:16:48;;;;;;;10.15;3.10;;;;;;;22.54;77.20;96445.53;5065233;28;20045;-75
2022/10/27 10:19:22;;;;;;;16.65;3.65;;;;;;;23.50;71.20;96436.81;5068324;28;20075;-75
2022/10/27 10:21:59;;;;;;;9.15;3.10;;;;;;;22.95;73.62;96439.44;5060164;28;20518;-75
2022/10/27 10:24:33;;;;;;;14.93;4.25;;;;;;;23.61;69.53;96443.34;5061494;28;20486;-75
2022/10/27 10:27:01;;;;;;;20.30;4.18;;;;;;;23.07;77.92;96445.97;5067097;28;20067;-76
2022/10/27 10:29:35;;;;;;;10.48;3.08;;;;;;;24.10;61.24;96444.63;5071322;28;20171;-74
2022/10/27 10:32:11;;;;;;;11.77;3.90;;;;;;;24.12;65.04;96445.84;5073852;28;20151;-75
2022/10/27 10:34:38;;;;;;;9.27;3.05;;;;;;;24.37;67.51;96448.56;5066815;28;20045;-74
2022/10/27 10:37:31;;;;;;;12.18;3.83;;;;;;;25.15;61.54;96441.28;5074233;28;20458;-74
2022/10/27 10:40:17;;;;;;;10.43;3.13;;;;;;;24.92;57.52;96443.72;5068223;28;20481;-75
2022/10/27 10:42:44;;;;;;;9.75;3.03;;;;;;;24.92;57.40;96443.72;5069895;28;20123;-73
2022/10/27 10:45:21;;;;;;;10.25;3.50;;;;;;;24.70;55.74;96445.75;5074217;28;20045;-73
2022/10/27 10:47:51;;;;;;;15.73;3.70;;;;;;;25.01;51.30;96447.06;5061998;28;20037;-73
2022/10/27 10:50:18;;;;;;;15.63;3.65;;;;;;;25.49;51.81;96449.19;5061239;28;20052;-74
2022/10/27 10:52:49;;;;;;;13.35;3.55;;;;;;;25.16;52.36;96436.72;5071476;28;20100;-74
2022/10/27 10:55:32;;;;;;;10.55;3.08;;;;;;;25.50;53.21;96434.56;5061918;28;20045;-73
2022/10/27 10:57:58;;;;;;;9.20;3.30;;;;;;;26.01;54.86;96431.31;5063060;28;20498;-75
2022/10/27 11:00:25;;;;;;;11.68;2.85;;;;;;;24.89;49.38;96429.00;5067289;28;20086;-75
2022/10/27 11:02:58;;;;;;;9.57;3.10;;;;;;;25.83;54.14;96428.13;5057400;28;20037;-75
2022/10/27 11:05:34;;;;;;;;;;;;;;;26.70;50.97;96429.09;5062745;28;20518;-76
2022/10/27 11:08:01;;;;;;;10.77;3.42;;;;;;;27.30;48.85;96417.22;5064922;28;19928;-76
2022/10/27 11:10:34;;;;;;;7.47;3.20;;;;;;;27.17;44.11;96418.47;5072359;28;20457;-75
2022/10/27 11:13:11;;;;;;;11.65;3.10;;;;;;;26.02;42.89;96417.47;5065811;28;20425;-75
2022/10/27 11:15:40;;;;;;;13.45;3.33;;;;;;;26.17;42.88;96424.00;5066695;28;20037;-75
2022/10/27 11:18:22;;;;;;;15.90;3.58;;;;;;;26.53;48.91;96419.44;5080947;28;20059;-77
2022/10/27 11:21:01;;;;;;;11.00;3.15;;;;;;;27.33;45.32;96410.31;5069732;28;20056;-76
2022/10/27 11:23:45;;;;;;;9.18;3.28;;;;;;;27.03;46.59;96414.38;5075233;28;20058;-75
2022/10/27 11:26:12;;;;;;;9.98;3.13;;;;;;;27.08;46.29;96411.38;5076419;28;20057;-76
2022/10/27 11:28:50;;;;;;;10.82;3.30;;;;;;;27.32;44.73;96414.94;5077577;28;20033;-77
2022/10/27 11:31:17;;;;;;;10.43;3.08;;;;;;;26.05;43.92;96400.59;5089496;28;20071;-78
2022/10/27 11:34:05;;;;;;;12.45;3.10;;;;;;;25.82;50.93;96402.31;5093663;28;20084;-77
2022/10/27 11:36:45;;;;;;;8.02;3.05;;;;;;;26.26;48.66;96388.75;5100107;28;20081;-76